sensor_id;sensor_type;location;lat;lon;timestamp;pressure;altitude;pressure_sealevel;temperature;humidity
72423;BME280;60413;55.658;37.498;2023-03-22T00:01:47;98133.50;;;4.47;100.00
72423;BME280;60413;55.658;37.498;2023-03-22T00:04:26;98149.72;;;4.49;100.00
72423;BME280;60413;55.658;37.498;2023-03-22T00:07:18;98124.28;;;4.33;100.00
72423;BME280;60413;55.658;37.498;2023-03-22T00:09:45;98143.28;;;4.52;100.00
72423;BME280;60413;55.658;37.498;2023-03-22T00:12:16;98119.09;;;4.14;100.00
72423;BME280;60413;55.658;37.498;2023-03-22T00:14:44;98116.66;;;4.01;100.00
72423;BME280;60413;55.658;37.498;2023-03-22T00:17:16;98115.38;;;3.92;100.00
72423;BME280;60413;55.658;37.498;2023-03-22T00:19:45;98141.41;;;4.10;100.00
72423;BME280;60413;55.658;37.498;2023-03-22T00:22:14;98102.34;;;3.92;100.00
72423;BME280;60413;55.658;37.498;2023-03-22T00:24:43;98138.06;;;4.21;100.00
72423;BME280;60413;55.658;37.498;2023-03-22T00:27:13;98102.63;;;4.02;100.00
72423;BME280;60413;55.658;37.498;2023-03-22T00:29:40;98102.69;;;3.95;100.00
72423;BME280;60413;55.658;37.498;2023-03-22T00:32:08;98128.94;;;4.12;100.00
72423;BME280;60413;55.658;37.498;2023-03-22T00:34:39;98179.28;;;4.31;100.00
72423;BME280;60413;55.658;37.498;2023-03-22T00:37:07;98174.56;;;4.40;100.00
72423;BME280;60413;55.658;37.498;2023-03-22T00:39:34;98147.00;;;4.14;100.00
72423;BME280;60413;55.658;37.498;2023-03-22T00:42:00;98184.91;;;4.47;100.00
72423;BME280;60413;55.658;37.498;2023-03-22T00:44:33;98139.38;;;4.12;100.00
72423;BME280;60413;55.658;37.498;2023-03-22T00:46:59;98146.91;;;4.20;100.00
72423;BME280;60413;55.658;37.498;2023-03-22T00:49:26;98128.13;;;4.00;100.00
72423;BME280;60413;55.658;37.498;2023-03-22T00:51:52;98125.66;;;4.05;100.00
72423;BME280;60413;55.658;37.498;2023-03-22T00:54:22;98116.91;;;3.99;100.00
72423;BME280;60413;55.658;37.498;2023-03-22T00:56:50;98159.47;;;4.12;100.00
72423;BME280;60413;55.658;37.498;2023-03-22T00:59:20;98153.69;;;4.10;100.00
72423;BME280;60413;55.658;37.498;2023-03-22T01:01:46;98129.56;;;3.96;100.00
72423;BME280;60413;55.658;37.498;2023-03-22T01:04:13;98189.63;;;4.38;100.00
72423;BME280;60413;55.658;37.498;2023-03-22T01:06:43;98162.22;;;3.98;100.00
72423;BME280;60413;55.658;37.498;2023-03-22T01:09:14;98159.31;;;4.06;100.00
72423;BME280;60413;55.658;37.498;2023-03-22T01:11:50;98138.78;;;3.80;100.00
72423;BME280;60413;55.658;37.498;2023-03-22T01:14:19;98208.94;;;4.18;100.00
72423;BME280;60413;55.658;37.498;2023-03-22T01:16:47;98130.31;;;3.66;100.00
72423;BME280;60413;55.658;37.498;2023-03-22T01:19:18;98185.19;;;4.08;100.00
72423;BME280;60413;55.658;37.498;2023-03-22T01:21:49;98139.22;;;3.77;100.00
72423;BME280;60413;55.658;37.498;2023-03-22T01:24:18;98195.81;;;4.06;100.00
72423;BME280;60413;55.658;37.498;2023-03-22T01:26:49;98212.53;;;4.17;100.00
72423;BME280;60413;55.658;37.498;2023-03-22T01:29:16;98151.09;;;3.73;100.00
72423;BME280;60413;55.658;37.498;2023-03-22T01:31:46;98171.88;;;3.79;100.00
72423;BME280;60413;55.658;37.498;2023-03-22T01:34:13;98168.88;;;3.76;100.00
72423;BME280;60413;55.658;37.498;2023-03-22T01:36:50;98168.16;;;3.68;100.00
72423;BME280;60413;55.658;37.498;2023-03-22T01:39:23;98152.66;;;3.74;100.00
72423;BME280;60413;55.658;37.498;2023-03-22T01:41:56;98157.38;;;3.65;100.00
72423;BME280;60413;55.658;37.498;2023-03-22T01:44:29;98169.28;;;3.79;100.00
72423;BME280;60413;55.658;37.498;2023-03-22T01:47:07;98194.44;;;3.85;100.00
72423;BME280;60413;55.658;37.498;2023-03-22T01:49:37;98212.03;;;3.90;100.00
72423;BME280;60413;55.658;37.498;2023-03-22T01:52:13;98246.38;;;4.05;100.00
72423;BME280;60413;55.658;37.498;2023-03-22T01:54:53;98205.75;;;3.79;100.00
72423;BME280;60413;55.658;37.498;2023-03-22T01:57:31;98160.28;;;3.57;100.00
72423;BME280;60413;55.658;37.498;2023-03-22T02:00:14;98220.00;;;3.95;100.00
72423;BME280;60413;55.658;37.498;2023-03-22T02:03:18;98234.22;;;3.99;100.00
72423;BME280;60413;55.658;37.498;2023-03-22T02:05:47;98218.41;;;3.94;100.00
72423;BME280;60413;55.658;37.498;2023-03-22T02:08:17;98193.72;;;3.78;100.00
72423;BME280;60413;55.658;37.498;2023-03-22T02:11:02;98255.22;;;4.23;100.00
72423;BME280;60413;55.658;37.498;2023-03-22T02:16:49;98249.06;;;4.17;100.00
72423;BME280;60413;55.658;37.498;2023-03-22T02:19:32;98253.63;;;4.03;100.00
72423;BME280;60413;55.658;37.498;2023-03-22T02:33:56;98271.28;;;4.01;100.00
72423;BME280;60413;55.658;37.498;2023-03-22T02:50:28;98293.84;;;3.89;100.00
72423;BME280;60413;55.658;37.498;2023-03-22T02:53:02;98226.69;;;3.47;100.00
72423;BME280;60413;55.658;37.498;2023-03-22T02:58:43;98288.97;;;3.99;100.00
72423;BME280;60413;55.658;37.498;2023-03-22T03:01:25;98247.72;;;3.71;100.00
72423;BME280;60413;55.658;37.498;2023-03-22T03:03:58;98270.91;;;3.79;100.00
72423;BME280;60413;55.658;37.498;2023-03-22T03:06:36;98277.13;;;3.78;100.00
72423;BME280;60413;55.658;37.498;2023-03-22T03:09:22;98247.09;;;3.50;100.00
72423;BME280;60413;55.658;37.498;2023-03-22T03:11:59;98263.59;;;3.69;100.00
72423;BME280;60413;55.658;37.498;2023-03-22T03:14:34;98246.19;;;3.38;100.00
72423;BME280;60413;55.658;37.498;2023-03-22T03:20:31;98313.81;;;3.77;100.00
72423;BME280;60413;55.658;37.498;2023-03-22T03:29:40;98272.94;;;3.27;100.00
72423;BME280;60413;55.658;37.498;2023-03-22T03:35:38;98250.00;;;3.10;100.00
72423;BME280;60413;55.658;37.498;2023-03-22T03:38:20;98291.84;;;3.41;100.00
72423;BME280;60413;55.658;37.498;2023-03-22T03:40:56;98278.81;;;3.15;100.00
72423;BME280;60413;55.658;37.498;2023-03-22T03:43:51;98270.00;;;3.17;100.00
72423;BME280;60413;55.658;37.498;2023-03-22T03:46:21;98324.19;;;3.33;100.00
72423;BME280;60413;55.658;37.498;2023-03-22T03:48:50;98273.25;;;3.05;100.00
72423;BME280;60413;55.658;37.498;2023-03-22T03:51:28;98324.09;;;3.46;100.00
72423;BME280;60413;55.658;37.498;2023-03-22T03:53:55;98268.91;;;3.31;100.00
72423;BME280;60413;55.658;37.498;2023-03-22T03:56:21;98303.56;;;3.57;100.00
72423;BME280;60413;55.658;37.498;2023-03-22T03:58:52;98317.88;;;3.73;100.00
72423;BME280;60413;55.658;37.498;2023-03-22T04:01:21;98327.28;;;3.74;100.00
72423;BME280;60413;55.658;37.498;2023-03-22T04:04:10;98352.59;;;3.92;100.00
72423;BME280;60413;55.658;37.498;2023-03-22T04:06:49;98347.91;;;4.00;100.00
72423;BME280;60413;55.658;37.498;2023-03-22T04:09:20;98291.69;;;3.61;100.00
72423;BME280;60413;55.658;37.498;2023-03-22T04:11:52;98309.81;;;3.74;100.00
72423;BME280;60413;55.658;37.498;2023-03-22T04:14:21;98337.59;;;3.87;100.00
72423;BME280;60413;55.658;37.498;2023-03-22T04:16:54;98294.53;;;3.59;100.00
72423;BME280;60413;55.658;37.498;2023-03-22T04:19:24;98293.94;;;3.57;100.00
72423;BME280;60413;55.658;37.498;2023-03-22T04:21:51;98299.56;;;3.54;100.00
72423;BME280;60413;55.658;37.498;2023-03-22T04:24:20;98299.81;;;3.52;100.00
72423;BME280;60413;55.658;37.498;2023-03-22T04:26:51;98298.66;;;3.42;100.00
72423;BME280;60413;55.658;37.498;2023-03-22T04:29:39;98299.28;;;3.37;100.00
72423;BME280;60413;55.658;37.498;2023-03-22T04:32:32;98365.69;;;3.60;100.00
72423;BME280;60413;55.658;37.498;2023-03-22T04:35:13;98312.03;;;3.20;100.00
72423;BME280;60413;55.658;37.498;2023-03-22T04:37:43;98319.72;;;3.08;100.00
72423;BME280;60413;55.658;37.498;2023-03-22T04:40:20;98314.72;;;3.07;100.00
72423;BME280;60413;55.658;37.498;2023-03-22T04:43:07;98351.13;;;3.13;100.00
72423;BME280;60413;55.658;37.498;2023-03-22T04:45:52;98389.63;;;3.43;100.00
72423;BME280;60413;55.658;37.498;2023-03-22T04:48:28;98341.38;;;3.02;100.00
72423;BME280;60413;55.658;37.498;2023-03-22T04:51:55;98329.44;;;2.88;100.00
72423;BME280;60413;55.658;37.498;2023-03-22T04:54:42;98371.78;;;3.08;100.00
72423;BME280;60413;55.658;37.498;2023-03-22T04:57:16;98401.97;;;3.23;100.00
72423;BME280;60413;55.658;37.498;2023-03-22T04:59:53;98386.38;;;3.16;100.00
72423;BME280;60413;55.658;37.498;2023-03-22T05:02:36;98346.78;;;3.01;100.00
72423;BME280;60413;55.658;37.498;2023-03-22T05:09:27;98411.00;;;3.52;100.00
72423;BME280;60413;55.658;37.498;2023-03-22T05:12:05;98397.31;;;3.31;100.00
72423;BME280;60413;55.658;37.498;2023-03-22T05:14:55;98395.72;;;3.24;100.00
72423;BME280;60413;55.658;37.498;2023-03-22T05:17:54;98422.00;;;3.54;100.00
72423;BME280;60413;55.658;37.498;2023-03-22T05:20:29;98415.84;;;3.48;100.00
72423;BME280;60413;55.658;37.498;2023-03-22T05:24:04;98366.38;;;3.10;100.00
72423;BME280;60413;55.658;37.498;2023-03-22T05:26:51;98390.56;;;3.17;100.00
72423;BME280;60413;55.658;37.498;2023-03-22T05:29:27;98400.41;;;3.08;100.00
72423;BME280;60413;55.658;37.498;2023-03-22T05:33:04;98439.75;;;3.39;100.00
72423;BME280;60413;55.658;37.498;2023-03-22T05:36:15;98460.00;;;3.37;100.00
72423;BME280;60413;55.658;37.498;2023-03-22T05:39:23;98403.03;;;3.08;100.00
72423;BME280;60413;55.658;37.498;2023-03-22T05:41:55;98424.75;;;3.27;100.00
72423;BME280;60413;55.658;37.498;2023-03-22T05:44:49;98451.00;;;3.32;100.00
72423;BME280;60413;55.658;37.498;2023-03-22T05:47:35;98458.59;;;3.34;100.00
72423;BME280;60413;55.658;37.498;2023-03-22T05:50:42;98437.00;;;3.20;100.00
72423;BME280;60413;55.658;37.498;2023-03-22T05:53:21;98454.03;;;3.29;100.00
72423;BME280;60413;55.658;37.498;2023-03-22T05:59:47;98492.50;;;3.21;100.00
72423;BME280;60413;55.658;37.498;2023-03-22T06:02:21;98426.94;;;2.85;100.00
72423;BME280;60413;55.658;37.498;2023-03-22T06:04:59;98474.94;;;3.09;100.00
72423;BME280;60413;55.658;37.498;2023-03-22T06:07:31;98489.75;;;3.02;100.00
72423;BME280;60413;55.658;37.498;2023-03-22T06:10:19;98467.97;;;2.83;100.00
72423;BME280;60413;55.658;37.498;2023-03-22T06:16:01;98494.00;;;2.83;100.00
72423;BME280;60413;55.658;37.498;2023-03-22T06:19:04;98462.59;;;2.71;100.00
72423;BME280;60413;55.658;37.498;2023-03-22T06:26:19;98467.78;;;2.85;100.00
72423;BME280;60413;55.658;37.498;2023-03-22T06:32:57;98502.56;;;2.97;100.00
72423;BME280;60413;55.658;37.498;2023-03-22T06:36:40;98510.72;;;3.21;100.00
72423;BME280;60413;55.658;37.498;2023-03-22T06:40:14;98523.13;;;3.32;100.00
72423;BME280;60413;55.658;37.498;2023-03-22T06:46:14;98485.44;;;3.41;100.00
72423;BME280;60413;55.658;37.498;2023-03-22T06:48:51;98500.56;;;3.64;100.00
72423;BME280;60413;55.658;37.498;2023-03-22T06:51:47;98522.78;;;4.31;100.00
72423;BME280;60413;55.658;37.498;2023-03-22T06:58:52;98525.72;;;4.91;100.00
72423;BME280;60413;55.658;37.498;2023-03-22T07:02:45;98502.00;;;5.48;100.00
72423;BME280;60413;55.658;37.498;2023-03-22T07:30:19;98724.22;;;12.65;100.00
72423;BME280;60413;55.658;37.498;2023-03-22T07:32:59;98677.09;;;10.38;100.00
72423;BME280;60413;55.658;37.498;2023-03-22T07:35:35;98654.28;;;10.27;100.00
72423;BME280;60413;55.658;37.498;2023-03-22T07:38:13;98721.06;;;10.87;100.00
72423;BME280;60413;55.658;37.498;2023-03-22T07:40:43;98686.19;;;11.45;100.00
72423;BME280;60413;55.658;37.498;2023-03-22T07:43:43;98706.59;;;11.60;100.00
72423;BME280;60413;55.658;37.498;2023-03-22T07:46:27;98668.94;;;10.94;100.00
72423;BME280;60413;55.658;37.498;2023-03-22T07:49:39;98661.56;;;9.71;100.00
72423;BME280;60413;55.658;37.498;2023-03-22T07:52:28;98713.34;;;9.14;100.00
72423;BME280;60413;55.658;37.498;2023-03-22T07:55:22;98631.44;;;7.85;100.00
72423;BME280;60413;55.658;37.498;2023-03-22T07:58:58;98645.59;;;7.60;100.00
72423;BME280;60413;55.658;37.498;2023-03-22T08:16:58;98613.34;;;5.86;100.00
72423;BME280;60413;55.658;37.498;2023-03-22T09:57:41;98690.31;;;7.54;100.00
72423;BME280;60413;55.658;37.498;2023-03-22T10:10:08;98657.34;;;7.22;100.00
72423;BME280;60413;55.658;37.498;2023-03-22T10:16:37;98661.59;;;7.35;100.00
72423;BME280;60413;55.658;37.498;2023-03-22T10:19:35;98707.63;;;7.67;100.00
72423;BME280;60413;55.658;37.498;2023-03-22T10:23:05;98673.66;;;7.48;100.00
72423;BME280;60413;55.658;37.498;2023-03-22T10:30:53;98696.88;;;7.80;100.00
72423;BME280;60413;55.658;37.498;2023-03-22T10:37:52;98727.34;;;8.33;100.00
72423;BME280;60413;55.658;37.498;2023-03-22T10:40:49;98685.25;;;7.76;100.00
72423;BME280;60413;55.658;37.498;2023-03-22T10:43:34;98674.78;;;7.76;100.00
72423;BME280;60413;55.658;37.498;2023-03-22T10:46:37;98733.03;;;7.90;100.00
72423;BME280;60413;55.658;37.498;2023-03-22T10:50:02;98668.53;;;7.30;100.00
72423;BME280;60413;55.658;37.498;2023-03-22T10:57:33;98731.91;;;7.86;100.00
72423;BME280;60413;55.658;37.498;2023-03-22T11:49:00;98659.06;;;7.52;100.00
72423;BME280;60413;55.658;37.498;2023-03-22T12:05:37;98640.13;;;6.91;100.00
72423;BME280;60413;55.658;37.498;2023-03-22T12:16:33;98695.88;;;7.69;100.00
72423;BME280;60413;55.658;37.498;2023-03-22T12:22:52;98705.97;;;8.13;100.00
72423;BME280;60413;55.658;37.498;2023-03-22T12:26:16;98648.75;;;7.86;100.00
72423;BME280;60413;55.658;37.498;2023-03-22T12:30:56;98702.81;;;7.99;100.00
72423;BME280;60413;55.658;37.498;2023-03-22T12:34:30;98635.00;;;7.08;100.00
72423;BME280;60413;55.658;37.498;2023-03-22T12:38:01;98680.16;;;7.46;100.00
72423;BME280;60413;55.658;37.498;2023-03-22T12:41:54;98621.78;;;6.91;100.00
72423;BME280;60413;55.658;37.498;2023-03-22T13:44:18;98669.78;;;7.63;100.00
72423;BME280;60413;55.658;37.498;2023-03-22T13:47:47;98632.88;;;7.29;100.00
72423;BME280;60413;55.658;37.498;2023-03-22T13:59:04;98642.63;;;7.33;100.00
72423;BME280;60413;55.658;37.498;2023-03-22T14:23:46;98628.41;;;7.29;100.00
72423;BME280;60413;55.658;37.498;2023-03-22T14:26:55;98629.19;;;7.41;100.00
72423;BME280;60413;55.658;37.498;2023-03-22T14:29:38;98639.66;;;7.53;100.00
72423;BME280;60413;55.658;37.498;2023-03-22T14:32:22;98644.34;;;7.63;100.00
72423;BME280;60413;55.658;37.498;2023-03-22T14:35:09;98617.47;;;7.32;100.00
72423;BME280;60413;55.658;37.498;2023-03-22T14:37:52;98634.44;;;7.41;100.00
72423;BME280;60413;55.658;37.498;2023-03-22T14:40:32;98628.75;;;7.21;100.00
72423;BME280;60413;55.658;37.498;2023-03-22T14:43:22;98653.84;;;7.29;100.00
72423;BME280;60413;55.658;37.498;2023-03-22T14:46:40;98596.38;;;6.80;100.00
72423;BME280;60413;55.658;37.498;2023-03-22T14:49:14;98658.84;;;7.42;100.00
72423;BME280;60413;55.658;37.498;2023-03-22T14:52:35;98643.13;;;7.18;100.00
72423;BME280;60413;55.658;37.498;2023-03-22T14:55:23;98614.25;;;6.83;100.00
72423;BME280;60413;55.658;37.498;2023-03-22T14:58:00;98608.44;;;6.81;100.00
72423;BME280;60413;55.658;37.498;2023-03-22T15:00:46;98615.41;;;6.99;100.00
72423;BME280;60413;55.658;37.498;2023-03-22T15:03:48;98622.59;;;7.03;100.00
72423;BME280;60413;55.658;37.498;2023-03-22T15:06:23;98625.00;;;7.05;100.00
72423;BME280;60413;55.658;37.498;2023-03-22T15:09:05;98606.72;;;6.86;100.00
72423;BME280;60413;55.658;37.498;2023-03-22T15:11:56;98624.16;;;6.81;100.00
72423;BME280;60413;55.658;37.498;2023-03-22T15:14:52;98642.28;;;6.82;100.00
72423;BME280;60413;55.658;37.498;2023-03-22T15:17:28;98590.75;;;6.53;100.00
72423;BME280;60413;55.658;37.498;2023-03-22T15:19:55;98647.31;;;7.19;100.00
72423;BME280;60413;55.658;37.498;2023-03-22T15:22:34;98625.34;;;6.97;100.00
72423;BME280;60413;55.658;37.498;2023-03-22T15:25:12;98625.91;;;6.99;100.00
72423;BME280;60413;55.658;37.498;2023-03-22T15:27:47;98634.88;;;6.91;100.00
72423;BME280;60413;55.658;37.498;2023-03-22T15:30:41;98583.53;;;6.90;100.00
72423;BME280;60413;55.658;37.498;2023-03-22T15:33:41;98611.97;;;6.86;100.00
72423;BME280;60413;55.658;37.498;2023-03-22T15:36:23;98600.25;;;6.77;100.00
72423;BME280;60413;55.658;37.498;2023-03-22T15:39:05;98611.47;;;6.54;100.00
72423;BME280;60413;55.658;37.498;2023-03-22T15:41:53;98667.09;;;6.80;100.00
72423;BME280;60413;55.658;37.498;2023-03-22T15:45:20;98657.53;;;6.74;100.00
72423;BME280;60413;55.658;37.498;2023-03-22T15:48:21;98608.25;;;6.40;100.00
72423;BME280;60413;55.658;37.498;2023-03-22T15:51:14;98629.72;;;6.30;100.00
72423;BME280;60413;55.658;37.498;2023-03-22T15:57:21;98671.44;;;6.44;100.00
72423;BME280;60413;55.658;37.498;2023-03-22T16:00:54;98613.22;;;6.30;100.00
72423;BME280;60413;55.658;37.498;2023-03-22T16:04:45;98595.50;;;6.02;100.00
72423;BME280;60413;55.658;37.498;2023-03-22T16:07:51;98656.13;;;6.29;100.00
72423;BME280;60413;55.658;37.498;2023-03-22T16:11:18;98636.81;;;6.11;100.00
72423;BME280;60413;55.658;37.498;2023-03-22T16:14:29;98684.06;;;6.17;100.00
72423;BME280;60413;55.658;37.498;2023-03-22T16:17:51;98678.59;;;6.00;100.00
72423;BME280;60413;55.658;37.498;2023-03-22T16:20:29;98648.88;;;5.57;100.00
72423;BME280;60413;55.658;37.498;2023-03-22T16:23:20;98607.03;;;5.38;100.00
72423;BME280;60413;55.658;37.498;2023-03-22T16:26:11;98637.63;;;5.56;100.00
72423;BME280;60413;55.658;37.498;2023-03-22T16:29:28;98679.38;;;5.63;100.00
72423;BME280;60413;55.658;37.498;2023-03-22T16:32:40;98682.97;;;5.44;100.00
72423;BME280;60413;55.658;37.498;2023-03-22T16:35:52;98640.34;;;4.99;100.00
72423;BME280;60413;55.658;37.498;2023-03-22T16:38:49;98647.53;;;5.04;100.00
72423;BME280;60413;55.658;37.498;2023-03-22T16:42:11;98645.94;;;4.78;100.00
72423;BME280;60413;55.658;37.498;2023-03-22T16:44:51;98599.56;;;4.48;100.00
72423;BME280;60413;55.658;37.498;2023-03-22T16:47:44;98632.31;;;4.69;100.00
72423;BME280;60413;55.658;37.498;2023-03-22T16:51:01;98589.88;;;4.55;100.00
72423;BME280;60413;55.658;37.498;2023-03-22T16:54:04;98627.81;;;4.58;100.00
72423;BME280;60413;55.658;37.498;2023-03-22T16:56:40;98624.38;;;4.57;100.00
72423;BME280;60413;55.658;37.498;2023-03-22T16:59:29;98608.44;;;4.40;100.00
72423;BME280;60413;55.658;37.498;2023-03-22T17:02:01;98610.13;;;4.28;100.00
72423;BME280;60413;55.658;37.498;2023-03-22T17:04:51;98646.13;;;4.51;100.00
72423;BME280;60413;55.658;37.498;2023-03-22T17:07:23;98598.72;;;4.16;100.00
72423;BME280;60413;55.658;37.498;2023-03-22T17:09:57;98636.09;;;4.48;100.00
72423;BME280;60413;55.658;37.498;2023-03-22T17:13:33;98629.72;;;4.37;100.00
72423;BME280;60413;55.658;37.498;2023-03-22T17:16:42;98647.78;;;4.39;100.00
72423;BME280;60413;55.658;37.498;2023-03-22T17:19:22;98630.59;;;4.24;100.00
72423;BME280;60413;55.658;37.498;2023-03-22T17:22:03;98627.63;;;4.14;100.00
72423;BME280;60413;55.658;37.498;2023-03-22T17:36:01;98620.75;;;3.88;100.00
72423;BME280;60413;55.658;37.498;2023-03-22T17:38:42;98621.53;;;3.88;100.00
72423;BME280;60413;55.658;37.498;2023-03-22T17:41:40;98610.34;;;3.81;100.00
72423;BME280;60413;55.658;37.498;2023-03-22T17:44:29;98607.16;;;3.73;100.00
72423;BME280;60413;55.658;37.498;2023-03-22T17:46:59;98585.78;;;3.50;100.00
72423;BME280;60413;55.658;37.498;2023-03-22T17:49:29;98606.41;;;3.59;100.00
72423;BME280;60413;55.658;37.498;2023-03-22T17:52:06;98586.78;;;3.49;100.00
72423;BME280;60413;55.658;37.498;2023-03-22T17:54:38;98592.34;;;3.66;100.00
72423;BME280;60413;55.658;37.498;2023-03-22T17:57:04;98652.34;;;4.05;100.00
72423;BME280;60413;55.658;37.498;2023-03-22T17:59:34;98592.91;;;3.75;100.00
72423;BME280;60413;55.658;37.498;2023-03-22T18:02:04;98617.97;;;3.83;100.00
72423;BME280;60413;55.658;37.498;2023-03-22T18:05:11;98601.38;;;3.64;100.00
72423;BME280;60413;55.658;37.498;2023-03-22T18:08:02;98637.19;;;3.88;100.00
72423;BME280;60413;55.658;37.498;2023-03-22T18:11:24;98594.38;;;3.64;100.00
72423;BME280;60413;55.658;37.498;2023-03-22T18:14:37;98599.34;;;3.73;100.00
72423;BME280;60413;55.658;37.498;2023-03-22T18:17:51;98659.72;;;4.21;100.00
72423;BME280;60413;55.658;37.498;2023-03-22T18:20:23;98596.09;;;3.77;100.00
72423;BME280;60413;55.658;37.498;2023-03-22T18:22:58;98637.50;;;4.05;100.00
72423;BME280;60413;55.658;37.498;2023-03-22T18:25:58;98622.25;;;4.02;100.00
72423;BME280;60413;55.658;37.498;2023-03-22T18:28:35;98627.66;;;4.07;100.00
72423;BME280;60413;55.658;37.498;2023-03-22T18:31:14;98600.44;;;3.97;100.00
72423;BME280;60413;55.658;37.498;2023-03-22T18:34:04;98625.44;;;4.18;100.00
72423;BME280;60413;55.658;37.498;2023-03-22T18:36:33;98614.44;;;4.02;100.00
72423;BME280;60413;55.658;37.498;2023-03-22T18:39:08;98668.25;;;4.35;100.00
72423;BME280;60413;55.658;37.498;2023-03-22T18:41:54;98650.81;;;4.29;100.00
72423;BME280;60413;55.658;37.498;2023-03-22T18:44:49;98640.66;;;4.14;100.00
72423;BME280;60413;55.658;37.498;2023-03-22T18:47:39;98645.19;;;4.32;100.00
72423;BME280;60413;55.658;37.498;2023-03-22T18:54:07;98575.47;;;3.76;100.00
72423;BME280;60413;55.658;37.498;2023-03-22T18:57:18;98640.28;;;4.11;100.00
72423;BME280;60413;55.658;37.498;2023-03-22T19:00:32;98578.31;;;3.61;100.00
72423;BME280;60413;55.658;37.498;2023-03-22T19:06:41;98571.38;;;3.41;100.00
72423;BME280;60413;55.658;37.498;2023-03-22T19:09:17;98579.56;;;3.51;100.00
72423;BME280;60413;55.658;37.498;2023-03-22T19:12:30;98556.38;;;3.30;100.00
72423;BME280;60413;55.658;37.498;2023-03-22T19:18:40;98568.63;;;3.29;100.00
72423;BME280;60413;55.658;37.498;2023-03-22T19:24:39;98632.03;;;3.62;100.00
72423;BME280;60413;55.658;37.498;2023-03-22T19:30:35;98617.63;;;3.66;100.00
72423;BME280;60413;55.658;37.498;2023-03-22T19:36:04;98573.81;;;3.36;100.00
72423;BME280;60413;55.658;37.498;2023-03-22T19:38:55;98612.84;;;3.56;100.00
72423;BME280;60413;55.658;37.498;2023-03-22T19:51:20;98617.75;;;3.84;100.00
72423;BME280;60413;55.658;37.498;2023-03-22T19:54:19;98614.72;;;3.81;100.00
72423;BME280;60413;55.658;37.498;2023-03-22T20:01:19;98545.34;;;3.41;100.00
72423;BME280;60413;55.658;37.498;2023-03-22T20:13:11;98552.72;;;3.51;100.00
72423;BME280;60413;55.658;37.498;2023-03-22T20:20:31;98576.22;;;3.89;100.00
72423;BME280;60413;55.658;37.498;2023-03-22T20:27:01;98560.59;;;3.83;100.00
72423;BME280;60413;55.658;37.498;2023-03-22T20:29:36;98552.41;;;3.79;100.00
72423;BME280;60413;55.658;37.498;2023-03-22T20:32:26;98627.97;;;4.31;100.00
72423;BME280;60413;55.658;37.498;2023-03-22T20:35:13;98576.56;;;4.00;100.00
72423;BME280;60413;55.658;37.498;2023-03-22T20:38:10;98638.94;;;4.40;100.00
72423;BME280;60413;55.658;37.498;2023-03-22T20:40:45;98607.72;;;4.26;100.00
72423;BME280;60413;55.658;37.498;2023-03-22T20:43:23;98556.31;;;3.95;100.00
72423;BME280;60413;55.658;37.498;2023-03-22T20:45:59;98636.88;;;4.49;100.00
72423;BME280;60413;55.658;37.498;2023-03-22T20:48:49;98596.09;;;4.22;100.00
72423;BME280;60413;55.658;37.498;2023-03-22T20:51:35;98634.06;;;4.50;100.00
72423;BME280;60413;55.658;37.498;2023-03-22T20:54:14;98575.25;;;4.16;100.00
72423;BME280;60413;55.658;37.498;2023-03-22T20:56:43;98578.06;;;4.14;100.00
72423;BME280;60413;55.658;37.498;2023-03-22T20:59:19;98572.53;;;4.04;100.00
72423;BME280;60413;55.658;37.498;2023-03-22T21:01:51;98556.09;;;4.03;100.00
72423;BME280;60413;55.658;37.498;2023-03-22T21:04:31;98580.19;;;4.31;100.00
72423;BME280;60413;55.658;37.498;2023-03-22T21:07:23;98576.06;;;4.16;100.00
72423;BME280;60413;55.658;37.498;2023-03-22T21:16:11;98559.22;;;4.12;100.00
72423;BME280;60413;55.658;37.498;2023-03-22T21:22:31;98636.34;;;4.72;100.00
72423;BME280;60413;55.658;37.498;2023-03-22T21:25:22;98596.44;;;4.64;100.00
72423;BME280;60413;55.658;37.498;2023-03-22T21:37:58;98566.47;;;4.42;100.00
72423;BME280;60413;55.658;37.498;2023-03-22T21:41:04;98627.06;;;4.76;100.00
72423;BME280;60413;55.658;37.498;2023-03-22T21:43:40;98566.47;;;4.42;100.00
72423;BME280;60413;55.658;37.498;2023-03-22T21:46:40;98549.44;;;4.39;100.00
72423;BME280;60413;55.658;37.498;2023-03-22T21:49:23;98550.25;;;4.40;100.00
72423;BME280;60413;55.658;37.498;2023-03-22T21:52:44;98548.50;;;4.27;100.00
72423;BME280;60413;55.658;37.498;2023-03-22T22:07:50;98553.69;;;4.34;100.00
72423;BME280;60413;55.658;37.498;2023-03-22T22:11:08;98586.41;;;4.61;100.00
72423;BME280;60413;55.658;37.498;2023-03-22T22:27:10;98616.81;;;4.74;100.00
72423;BME280;60413;55.658;37.498;2023-03-22T22:30:09;98574.84;;;4.51;100.00
72423;BME280;60413;55.658;37.498;2023-03-22T22:32:42;98552.53;;;4.30;100.00
72423;BME280;60413;55.658;37.498;2023-03-22T22:35:34;98586.09;;;4.51;100.00
72423;BME280;60413;55.658;37.498;2023-03-22T22:38:47;98560.09;;;4.38;100.00
72423;BME280;60413;55.658;37.498;2023-03-22T22:41:35;98558.47;;;4.37;100.00
72423;BME280;60413;55.658;37.498;2023-03-22T22:45:07;98565.16;;;4.33;100.00
72423;BME280;60413;55.658;37.498;2023-03-22T23:41:11;98585.59;;;4.61;100.00
72423;BME280;60413;55.658;37.498;2023-03-22T23:48:45;98600.84;;;4.64;100.00
72423;BME280;60413;55.658;37.498;2023-03-22T23:51:35;98594.84;;;4.63;100.00
72423;BME280;60413;55.658;37.498;2023-03-22T23:54:44;98523.09;;;4.16;100.00
